createdAt,value
2019-03-03T00:00:07.577Z,1003.65
2019-03-03T00:00:33.685Z,1003.61
2019-03-03T00:00:59.797Z,1003.63
2019-03-03T00:01:25.902Z,1003.64
2019-03-03T00:01:52.003Z,1003.56
2019-03-03T00:02:18.118Z,1003.56
2019-03-03T00:02:44.221Z,1003.74
2019-03-03T00:03:10.332Z,1003.6
2019-03-03T00:03:36.437Z,1003.64
2019-03-03T00:04:02.546Z,1003.58
2019-03-03T00:04:28.681Z,1003.59
2019-03-03T00:04:54.783Z,1003.55
2019-03-03T00:05:20.889Z,1003.56
2019-03-03T00:05:46.998Z,1003.59
2019-03-03T00:06:13.103Z,1003.53
2019-03-03T00:06:39.212Z,1003.52
2019-03-03T00:07:05.316Z,1003.54
2019-03-03T00:07:31.457Z,1003.61
2019-03-03T00:07:57.589Z,1003.57
2019-03-03T00:08:24.628Z,1003.6
2019-03-03T00:08:50.792Z,1003.69
2019-03-03T00:09:16.924Z,1003.62
2019-03-03T00:09:43.040Z,1003.69
2019-03-03T00:10:09.167Z,1003.65
2019-03-03T00:10:35.272Z,1003.59
2019-03-03T00:11:01.386Z,1003.61
2019-03-03T00:11:27.493Z,1003.67
2019-03-03T00:11:53.599Z,1003.68
2019-03-03T00:12:19.696Z,1003.63
2019-03-03T00:12:45.803Z,1003.63
2019-03-03T00:13:11.911Z,1003.65
2019-03-03T00:13:38.014Z,1003.68
2019-03-03T00:14:04.133Z,1003.65
2019-03-03T00:14:30.235Z,1003.7
2019-03-03T00:14:56.344Z,1003.69
2019-03-03T00:15:22.453Z,1003.67
2019-03-03T00:15:48.555Z,1003.65
2019-03-03T00:16:14.668Z,1003.68
2019-03-03T00:16:40.772Z,1003.71
2019-03-03T00:17:06.935Z,1003.7
2019-03-03T00:17:33.048Z,1003.67
2019-03-03T00:17:59.176Z,1003.67
2019-03-03T00:18:25.287Z,1003.56
2019-03-03T00:18:51.394Z,1003.59
2019-03-03T00:19:17.508Z,1003.7
2019-03-03T00:19:43.609Z,1003.67
2019-03-03T00:20:09.748Z,1003.64
2019-03-03T00:20:35.859Z,1003.72
2019-03-03T00:21:01.961Z,1003.61
2019-03-03T00:21:28.069Z,1003.65
2019-03-03T00:21:54.204Z,1003.61
2019-03-03T00:22:20.337Z,1003.73
2019-03-03T00:22:46.471Z,1003.65
2019-03-03T00:23:12.580Z,1003.69
2019-03-03T00:23:38.718Z,1003.58
2019-03-03T00:24:04.849Z,1003.67
2019-03-03T00:24:30.982Z,1003.57
2019-03-03T00:24:57.093Z,1003.65
2019-03-03T00:25:23.196Z,1003.62
2019-03-03T00:25:50.323Z,1003.54
2019-03-03T00:26:16.429Z,1003.83
2019-03-03T00:26:42.568Z,1003.79
2019-03-03T00:27:08.675Z,1003.66
2019-03-03T00:27:34.807Z,1003.59
2019-03-03T00:28:00.918Z,1003.66
2019-03-03T00:28:27.031Z,1003.67
2019-03-03T00:28:53.131Z,1003.66
2019-03-03T00:29:19.242Z,1003.64
2019-03-03T00:29:45.345Z,1003.59
2019-03-03T00:30:11.454Z,1003.59
2019-03-03T00:30:37.566Z,1003.66
2019-03-03T00:31:03.669Z,1003.59
2019-03-03T00:31:29.773Z,1003.53
2019-03-03T00:31:55.872Z,1003.62
2019-03-03T00:32:21.977Z,1003.62
2019-03-03T00:32:48.089Z,1003.58
2019-03-03T00:33:14.187Z,1003.61
2019-03-03T00:33:40.299Z,1003.57
2019-03-03T00:34:06.404Z,1003.61
2019-03-03T00:34:32.549Z,1003.65
2019-03-03T00:34:58.650Z,1003.58
2019-03-03T00:35:24.771Z,1003.57
2019-03-03T00:35:51.861Z,1003.61
2019-03-03T00:36:17.969Z,1003.55
2019-03-03T00:36:44.078Z,1003.56
2019-03-03T00:37:10.181Z,1003.6
2019-03-03T00:37:36.288Z,1003.57
2019-03-03T00:38:02.396Z,1003.59
2019-03-03T00:38:28.527Z,1003.6
2019-03-03T00:38:54.643Z,1003.64
2019-03-03T00:39:20.778Z,1003.5
2019-03-03T00:39:46.914Z,1003.53
2019-03-03T00:40:13.023Z,1003.54
2019-03-03T00:40:39.131Z,1003.67
2019-03-03T00:41:05.270Z,1003.56
2019-03-03T00:41:31.376Z,1003.63
2019-03-03T00:41:57.479Z,1003.59
2019-03-03T00:42:23.596Z,1003.52
2019-03-03T00:42:49.698Z,1003.55
2019-03-03T00:43:15.837Z,1003.48
2019-03-03T00:43:41.949Z,1003.45
2019-03-03T00:44:08.053Z,1003.42
2019-03-03T00:44:34.156Z,1003.56
2019-03-03T00:45:01.254Z,1003.54
2019-03-03T00:45:27.365Z,1003.55
2019-03-03T00:45:53.467Z,1003.48
2019-03-03T00:46:19.579Z,1003.45
2019-03-03T00:46:45.683Z,1003.52
2019-03-03T00:47:11.787Z,1003.52
2019-03-03T00:47:37.899Z,1003.41
2019-03-03T00:48:04.000Z,1003.49
2019-03-03T00:48:30.114Z,1003.44
2019-03-03T00:48:56.218Z,1003.43
2019-03-03T00:49:22.340Z,1003.5
2019-03-03T00:49:48.435Z,1003.37
2019-03-03T00:50:14.542Z,1003.44
2019-03-03T00:50:40.645Z,1003.44
2019-03-03T00:51:06.754Z,1003.44
2019-03-03T00:51:32.857Z,1003.42
2019-03-03T00:51:58.970Z,1003.41
2019-03-03T00:52:25.073Z,1003.49
2019-03-03T00:52:51.186Z,1003.37
2019-03-03T00:53:17.292Z,1003.41
2019-03-03T00:53:43.396Z,1003.41
2019-03-03T00:54:09.499Z,1003.37
2019-03-03T00:54:35.613Z,1003.44
2019-03-03T00:55:01.714Z,1003.48
2019-03-03T00:55:27.825Z,1003.4
2019-03-03T00:55:53.928Z,1003.41
2019-03-03T00:56:20.041Z,1003.43
2019-03-03T00:56:46.147Z,1003.43
2019-03-03T00:57:12.251Z,1003.36
2019-03-03T00:57:38.350Z,1003.38
2019-03-03T00:58:04.466Z,1003.38
2019-03-03T00:58:30.600Z,1003.38
2019-03-03T00:58:56.701Z,1003.37
2019-03-03T00:59:22.813Z,1003.41
2019-03-03T00:59:48.914Z,1003.28
2019-03-03T01:00:15.030Z,1003.31
2019-03-03T01:00:41.133Z,1003.36
2019-03-03T01:01:07.244Z,1003.27
2019-03-03T01:01:33.356Z,1003.31
2019-03-03T01:01:59.465Z,1003.28
2019-03-03T01:02:25.568Z,1003.3
2019-03-03T01:02:51.703Z,1003.4
2019-03-03T01:03:17.805Z,1003.33
2019-03-03T01:03:43.911Z,1003.36
2019-03-03T01:04:10.013Z,1003.3
2019-03-03T01:04:36.170Z,1003.28
2019-03-03T01:05:02.383Z,1003.38
2019-03-03T01:05:28.483Z,1003.38
2019-03-03T01:05:54.596Z,1003.39
2019-03-03T01:06:20.699Z,1003.28
2019-03-03T01:06:46.812Z,1003.35
2019-03-03T01:07:12.920Z,1003.4
2019-03-03T01:07:39.020Z,1003.4
2019-03-03T01:08:05.129Z,1003.32
2019-03-03T01:08:31.238Z,1003.26
2019-03-03T01:08:57.343Z,1003.43
2019-03-03T01:09:23.449Z,1003.28
2019-03-03T01:09:49.556Z,1003.31
2019-03-03T01:10:15.666Z,1003.24
2019-03-03T01:10:41.765Z,1003.29
2019-03-03T01:11:07.878Z,1003.29
2019-03-03T01:11:33.988Z,1003.26
2019-03-03T01:12:00.091Z,1003.26
2019-03-03T01:12:26.197Z,1003.17
2019-03-03T01:12:52.307Z,1003.22
2019-03-03T01:13:18.409Z,1003.31
2019-03-03T01:13:44.520Z,1003.34
2019-03-03T01:14:11.375Z,1003.26
2019-03-03T01:14:37.480Z,1003.19
2019-03-03T01:15:03.609Z,1003.17
2019-03-03T01:15:29.724Z,1003.25
2019-03-03T01:15:55.833Z,1003.18
2019-03-03T01:16:21.941Z,1003.21
2019-03-03T01:16:48.041Z,1003.2
2019-03-03T01:17:14.147Z,1003.21
2019-03-03T01:17:40.250Z,1003.16
2019-03-03T01:18:06.360Z,1003.27
2019-03-03T01:18:32.465Z,1003.13
2019-03-03T01:18:58.565Z,1003.2
2019-03-03T01:19:24.671Z,1003.13
2019-03-03T01:19:50.785Z,1003.2
2019-03-03T01:20:16.894Z,1003.26
2019-03-03T01:20:42.999Z,1003.15
2019-03-03T01:21:09.107Z,1003.16
2019-03-03T01:21:35.211Z,1003.11
2019-03-03T01:22:01.326Z,1003.06
2019-03-03T01:22:27.464Z,1003.11
2019-03-03T01:22:53.565Z,1003.02
2019-03-03T01:23:19.674Z,1002.94
2019-03-03T01:23:45.783Z,1003.09
2019-03-03T01:24:11.889Z,1003.05
2019-03-03T01:24:37.988Z,1003
2019-03-03T01:25:04.100Z,1002.93
2019-03-03T01:25:30.239Z,1002.94
2019-03-03T01:25:56.349Z,1003.05
2019-03-03T01:26:22.456Z,1002.97
2019-03-03T01:26:48.562Z,1002.89
2019-03-03T01:27:14.664Z,1002.97
2019-03-03T01:27:40.800Z,1002.94
2019-03-03T01:28:06.903Z,1002.91
2019-03-03T01:28:33.009Z,1002.9
2019-03-03T01:28:59.120Z,1002.96
2019-03-03T01:29:26.209Z,1002.91
2019-03-03T01:29:52.356Z,1002.87
2019-03-03T01:30:18.480Z,1002.86
2019-03-03T01:30:44.617Z,1002.77
2019-03-03T01:31:10.723Z,1002.98
2019-03-03T01:31:36.824Z,1002.87
2019-03-03T01:32:02.963Z,1002.87
2019-03-03T01:32:29.079Z,1002.89
2019-03-03T01:32:55.207Z,1002.75
2019-03-03T01:33:21.310Z,1002.75
2019-03-03T01:33:47.418Z,1002.66
2019-03-03T01:34:13.526Z,1002.75
2019-03-03T01:34:39.630Z,1002.7
2019-03-03T01:35:05.749Z,1002.82
2019-03-03T01:35:31.855Z,1002.78
2019-03-03T01:35:57.956Z,1002.74
2019-03-03T01:36:24.063Z,1002.62
2019-03-03T01:36:50.174Z,1002.73
2019-03-03T01:37:16.282Z,1002.64
2019-03-03T01:37:42.384Z,1002.7
2019-03-03T01:38:08.499Z,1002.66
2019-03-03T01:38:34.611Z,1002.76
2019-03-03T01:39:00.710Z,1002.59
2019-03-03T01:39:26.814Z,1002.71
2019-03-03T01:39:52.921Z,1002.64
2019-03-03T01:40:19.030Z,1002.6
2019-03-03T01:40:45.142Z,1002.77
2019-03-03T01:41:11.599Z,1002.68
2019-03-03T01:41:37.705Z,1002.58
2019-03-03T01:42:03.820Z,1002.65
2019-03-03T01:42:29.931Z,1002.61
2019-03-03T01:42:56.070Z,1002.63
2019-03-03T01:43:22.194Z,1002.73
2019-03-03T01:43:48.298Z,1002.7
2019-03-03T01:44:14.404Z,1002.69
2019-03-03T01:44:40.512Z,1002.59
2019-03-03T01:45:06.612Z,1002.61
2019-03-03T01:45:32.722Z,1002.64
2019-03-03T01:45:58.825Z,1002.67
2019-03-03T01:46:24.941Z,1002.76
2019-03-03T01:46:51.046Z,1002.9
2019-03-03T01:47:17.150Z,1002.63
2019-03-03T01:47:43.262Z,1002.62
2019-03-03T01:48:09.372Z,1002.64
2019-03-03T01:48:35.478Z,1002.58
2019-03-03T01:49:01.580Z,1002.65
2019-03-03T01:49:27.686Z,1002.71
2019-03-03T01:49:53.795Z,1002.64
2019-03-03T01:50:19.901Z,1002.67
2019-03-03T01:50:46.024Z,1002.67
2019-03-03T01:51:12.139Z,1002.67
2019-03-03T01:51:38.242Z,1002.69
2019-03-03T01:52:04.354Z,1002.62
2019-03-03T01:52:30.478Z,1002.64
2019-03-03T01:52:56.651Z,1002.66
2019-03-03T01:53:22.765Z,1002.66
2019-03-03T01:53:48.869Z,1002.65
2019-03-03T01:54:14.971Z,1002.64
2019-03-03T01:54:41.085Z,1002.57
2019-03-03T01:55:07.193Z,1002.65
2019-03-03T01:55:33.299Z,1002.58
2019-03-03T01:55:59.407Z,1002.61
2019-03-03T01:56:25.546Z,1002.72
2019-03-03T01:56:51.650Z,1002.52
2019-03-03T01:57:17.785Z,1002.61
2019-03-03T01:57:43.889Z,1002.59
2019-03-03T01:58:09.999Z,1002.62
2019-03-03T01:58:36.110Z,1002.56
2019-03-03T01:59:02.213Z,1002.56
2019-03-03T01:59:28.327Z,1002.56
2019-03-03T01:59:54.425Z,1002.58
2019-03-03T02:00:20.529Z,1002.69
2019-03-03T02:00:46.637Z,1002.55
2019-03-03T02:01:12.751Z,1002.5
2019-03-03T02:01:38.885Z,1002.56
2019-03-03T02:02:04.993Z,1002.54
2019-03-03T02:02:31.096Z,1002.53
2019-03-03T02:02:57.210Z,1002.55
2019-03-03T02:03:23.304Z,1002.5
2019-03-03T02:03:49.417Z,1002.53
2019-03-03T02:04:15.515Z,1002.55
2019-03-03T02:04:41.623Z,1002.54
2019-03-03T02:05:07.730Z,1002.41
2019-03-03T02:05:33.843Z,1002.46
2019-03-03T02:05:59.965Z,1002.53
2019-03-03T02:06:26.087Z,1002.54
2019-03-03T02:06:52.188Z,1002.52
2019-03-03T02:07:18.290Z,1002.43
2019-03-03T02:07:44.394Z,1002.5
2019-03-03T02:08:10.532Z,1002.52
2019-03-03T02:08:36.633Z,1002.52
2019-03-03T02:09:02.740Z,1002.47
2019-03-03T02:09:28.847Z,1002.49
2019-03-03T02:09:54.952Z,1002.45
2019-03-03T02:10:21.072Z,1002.48
2019-03-03T02:10:47.184Z,1002.46
2019-03-03T02:11:13.293Z,1002.65
2019-03-03T02:11:39.396Z,1002.47
2019-03-03T02:12:05.505Z,1002.45
2019-03-03T02:12:31.615Z,1002.38
2019-03-03T02:12:57.721Z,1002.47
2019-03-03T02:13:23.837Z,1002.38
2019-03-03T02:13:49.941Z,1002.41
2019-03-03T02:14:16.047Z,1002.41
2019-03-03T02:14:42.157Z,1002.45
2019-03-03T02:15:08.265Z,1002.46
2019-03-03T02:15:34.373Z,1002.4
2019-03-03T02:16:00.474Z,1002.36
2019-03-03T02:16:26.587Z,1002.34
2019-03-03T02:16:52.687Z,1002.36
2019-03-03T02:17:18.801Z,1002.35
2019-03-03T02:17:44.903Z,1002.3
2019-03-03T02:18:11.012Z,1002.32
2019-03-03T02:18:37.119Z,1002.5
2019-03-03T02:19:03.223Z,1002.36
2019-03-03T02:19:29.332Z,1002.25
2019-03-03T02:19:55.439Z,1002.34
2019-03-03T02:20:21.545Z,1002.25
2019-03-03T02:20:47.649Z,1002.31
2019-03-03T02:21:13.760Z,1002.17
2019-03-03T02:21:39.868Z,1002.18
2019-03-03T02:22:06.010Z,1002.34
2019-03-03T02:22:32.111Z,1002.15
2019-03-03T02:22:58.223Z,1002.19
2019-03-03T02:23:24.327Z,1002.09
2019-03-03T02:23:50.493Z,1002.17
2019-03-03T02:24:16.598Z,1002.11
2019-03-03T02:24:42.707Z,1002.12
2019-03-03T02:25:08.848Z,1002.1
2019-03-03T02:25:34.924Z,1002.02
2019-03-03T02:26:01.031Z,1001.99
2019-03-03T02:26:27.132Z,1002.03
2019-03-03T02:26:53.264Z,1002.16
2019-03-03T02:27:19.373Z,1002.12
2019-03-03T02:27:45.478Z,1002.05
2019-03-03T02:28:11.587Z,1002.11
2019-03-03T02:28:37.688Z,1002.06
2019-03-03T02:29:03.784Z,1002.06
2019-03-03T02:29:29.893Z,1002.02
2019-03-03T02:29:55.997Z,1002.19
2019-03-03T02:30:22.133Z,1002.01
2019-03-03T02:30:48.245Z,1002.13
2019-03-03T02:31:14.412Z,1002.01
2019-03-03T02:31:40.536Z,1001.98
2019-03-03T02:32:06.636Z,1002.02
2019-03-03T02:32:32.747Z,1001.93
2019-03-03T02:32:58.876Z,1001.96
2019-03-03T02:33:25.013Z,1002.02
2019-03-03T02:33:51.168Z,1001.97
2019-03-03T02:34:17.278Z,1002
2019-03-03T02:34:43.410Z,1001.93
2019-03-03T02:35:09.568Z,1001.98
2019-03-03T02:35:35.685Z,1002.01
2019-03-03T02:36:01.779Z,1002.03
2019-03-03T02:36:27.940Z,1001.97
2019-03-03T02:36:54.042Z,1001.85
2019-03-03T02:37:20.155Z,1001.96
2019-03-03T02:37:46.269Z,1001.92
2019-03-03T02:38:12.369Z,1001.95
2019-03-03T02:38:38.475Z,1001.86
2019-03-03T02:39:04.579Z,1001.87
2019-03-03T02:39:30.749Z,1001.83
2019-03-03T02:39:56.879Z,1001.87
2019-03-03T02:40:22.987Z,1001.88
2019-03-03T02:40:49.130Z,1001.81
2019-03-03T02:41:15.270Z,1001.83
2019-03-03T02:41:41.405Z,1001.82
2019-03-03T02:42:07.598Z,1001.85
2019-03-03T02:42:33.705Z,1001.83
2019-03-03T02:42:59.837Z,1001.88
2019-03-03T02:43:25.942Z,1001.89
2019-03-03T02:43:52.080Z,1001.82
2019-03-03T02:44:18.210Z,1001.78
2019-03-03T02:44:44.344Z,1001.82
2019-03-03T02:45:10.450Z,1001.77
2019-03-03T02:45:36.565Z,1001.72
2019-03-03T02:46:02.672Z,1001.86
2019-03-03T02:46:28.868Z,1001.76
2019-03-03T02:46:54.974Z,1001.76
2019-03-03T02:47:21.083Z,1001.78
2019-03-03T02:47:47.185Z,1001.79
2019-03-03T02:48:13.317Z,1001.77
2019-03-03T02:48:39.459Z,1001.77
2019-03-03T02:49:05.529Z,1001.78
2019-03-03T02:49:31.727Z,1001.65
2019-03-03T02:49:57.823Z,1001.86
2019-03-03T02:50:24.003Z,1001.83
2019-03-03T02:50:50.077Z,1001.83
2019-03-03T02:51:16.185Z,1001.76
2019-03-03T02:51:42.279Z,1001.72
2019-03-03T02:52:08.387Z,1001.64
2019-03-03T02:52:34.497Z,1001.72
2019-03-03T02:53:00.607Z,1001.57
2019-03-03T02:53:26.702Z,1001.7
2019-03-03T02:53:52.807Z,1001.67
2019-03-03T02:54:18.910Z,1001.64
2019-03-03T02:54:45.012Z,1001.65
2019-03-03T02:55:11.184Z,1001.61
2019-03-03T02:55:37.335Z,1001.59
2019-03-03T02:56:03.473Z,1001.57
2019-03-03T02:56:29.575Z,1001.54
2019-03-03T02:56:55.706Z,1001.63
2019-03-03T02:57:21.870Z,1001.57
2019-03-03T02:57:48.015Z,1001.56
2019-03-03T02:58:14.136Z,1001.57
2019-03-03T02:58:40.249Z,1001.56
2019-03-03T02:59:06.354Z,1001.58
2019-03-03T02:59:32.511Z,1001.87
2019-03-03T02:59:58.662Z,1001.55
2019-03-03T03:00:24.797Z,1001.68
2019-03-03T03:00:50.899Z,1001.61
2019-03-03T03:01:17.014Z,1001.67
2019-03-03T03:01:43.115Z,1001.56
2019-03-03T03:02:09.229Z,1001.63
2019-03-03T03:02:35.365Z,1001.61
2019-03-03T03:03:01.531Z,1001.38
2019-03-03T03:03:27.642Z,1001.58
2019-03-03T03:03:53.771Z,1001.62
2019-03-03T03:04:19.913Z,1001.49
2019-03-03T03:04:46.013Z,1001.63
2019-03-03T03:05:12.154Z,1001.74
2019-03-03T03:05:38.261Z,1001.52
2019-03-03T03:06:04.425Z,1001.58
2019-03-03T03:06:30.552Z,1001.55
2019-03-03T03:06:56.661Z,1001.66
2019-03-03T03:07:22.800Z,1001.57
2019-03-03T03:07:48.905Z,1001.54
2019-03-03T03:08:15.067Z,1001.6
2019-03-03T03:08:41.231Z,1001.48
2019-03-03T03:09:07.353Z,1001.75
2019-03-03T03:09:33.444Z,1001.6
2019-03-03T03:09:59.615Z,1001.51
2019-03-03T03:10:25.726Z,1001.6
2019-03-03T03:10:51.857Z,1001.54
2019-03-03T03:11:17.969Z,1001.5
2019-03-03T03:11:44.074Z,1001.48
2019-03-03T03:12:10.203Z,1001.54
2019-03-03T03:12:36.287Z,1001.47
2019-03-03T03:13:02.400Z,1001.59
2019-03-03T03:13:28.534Z,1001.44
2019-03-03T03:13:54.668Z,1001.45
2019-03-03T03:14:20.773Z,1001.46
2019-03-03T03:14:46.964Z,1001.45
2019-03-03T03:15:13.077Z,1001.49
2019-03-03T03:15:40.509Z,1001.45
2019-03-03T03:16:06.304Z,1001.57
2019-03-03T03:16:32.468Z,1001.49
2019-03-03T03:16:58.576Z,1001.35
2019-03-03T03:17:24.706Z,1001.55
2019-03-03T03:17:50.810Z,1001.42
2019-03-03T03:18:16.923Z,1001.4
2019-03-03T03:18:43.036Z,1001.49
2019-03-03T03:19:09.165Z,1001.42
2019-03-03T03:19:35.263Z,1001.43
2019-03-03T03:20:01.375Z,1001.39
2019-03-03T03:20:27.481Z,1001.48
2019-03-03T03:20:53.644Z,1001.45
2019-03-03T03:21:19.755Z,1001.38
2019-03-03T03:21:45.864Z,1001.48
2019-03-03T03:22:11.993Z,1001.44
2019-03-03T03:22:38.104Z,1001.46
2019-03-03T03:23:04.239Z,1001.37
2019-03-03T03:23:30.348Z,1001.39
2019-03-03T03:23:56.486Z,1001.47
2019-03-03T03:24:22.592Z,1001.46
2019-03-03T03:24:48.700Z,1001.51
2019-03-03T03:25:14.809Z,1001.42
2019-03-03T03:25:40.935Z,1001.51
2019-03-03T03:26:07.078Z,1001.44
2019-03-03T03:26:33.170Z,1001.56
2019-03-03T03:26:59.275Z,1001.35
2019-03-03T03:27:26.379Z,1001.4
2019-03-03T03:27:52.491Z,1001.38
2019-03-03T03:28:18.599Z,1001.39
2019-03-03T03:28:44.704Z,1001.41
2019-03-03T03:29:10.811Z,1001.43
2019-03-03T03:29:36.944Z,1001.44
2019-03-03T03:30:03.077Z,1001.33
2019-03-03T03:30:29.183Z,1001.36
2019-03-03T03:30:55.313Z,1001.34
2019-03-03T03:31:21.462Z,1001.31
2019-03-03T03:31:47.583Z,1001.17
2019-03-03T03:32:13.682Z,1001.38
2019-03-03T03:32:39.840Z,1001.25
2019-03-03T03:33:05.976Z,1001.38
2019-03-03T03:33:32.179Z,1001.45
2019-03-03T03:33:58.289Z,1001.38
2019-03-03T03:34:24.394Z,1001.46
2019-03-03T03:34:50.527Z,1001.38
2019-03-03T03:35:16.746Z,1001.36
2019-03-03T03:35:42.885Z,1001.37
2019-03-03T03:36:08.992Z,1001.3
2019-03-03T03:36:36.768Z,1001.32
2019-03-03T03:37:02.196Z,1001.39
2019-03-03T03:37:28.294Z,1001.36
2019-03-03T03:37:54.427Z,1001.52
2019-03-03T03:38:20.534Z,1001.33
2019-03-03T03:38:46.723Z,1001.4
2019-03-03T03:39:12.862Z,1001.41
2019-03-03T03:39:38.963Z,1001.39
2019-03-03T03:40:05.098Z,1001.55
2019-03-03T03:40:31.255Z,1001.4
2019-03-03T03:40:57.437Z,1001.38
2019-03-03T03:41:23.622Z,1001.35
2019-03-03T03:41:49.790Z,1001.4
2019-03-03T03:42:15.885Z,1001.39
2019-03-03T03:42:42.056Z,1001.54
2019-03-03T03:43:08.168Z,1001.5
2019-03-03T03:43:34.301Z,1001.43
2019-03-03T03:44:00.438Z,1001.54
2019-03-03T03:44:26.541Z,1001.36
2019-03-03T03:44:52.687Z,1001.45
2019-03-03T03:45:18.795Z,1001.42
2019-03-03T03:45:44.921Z,1001.4
2019-03-03T03:46:11.036Z,1001.33
2019-03-03T03:46:37.164Z,1001.41
2019-03-03T03:47:03.300Z,1001.32
2019-03-03T03:47:29.410Z,1001.42
2019-03-03T03:47:55.513Z,1001.35
2019-03-03T03:48:21.613Z,1001.34
2019-03-03T03:48:47.729Z,1001.37
2019-03-03T03:49:13.836Z,1001.24
2019-03-03T03:49:39.948Z,1001.31
2019-03-03T03:50:06.060Z,1001.33
2019-03-03T03:50:32.153Z,1001.28
2019-03-03T03:50:58.263Z,1001.35
2019-03-03T03:51:24.403Z,1001.36
2019-03-03T03:51:50.545Z,1001.23
2019-03-03T03:52:16.652Z,1001.38
2019-03-03T03:52:42.766Z,1001.26
2019-03-03T03:53:08.886Z,1001.27
2019-03-03T03:53:34.994Z,1001.27
2019-03-03T03:54:01.189Z,1001.19
2019-03-03T03:54:27.262Z,1001.24
2019-03-03T03:54:53.372Z,1001.23
2019-03-03T03:55:19.485Z,1001.17
2019-03-03T03:55:45.587Z,1001.21
2019-03-03T03:56:11.760Z,1001.22
2019-03-03T03:56:37.879Z,1001.11
2019-03-03T03:57:04.017Z,1001.19
2019-03-03T03:57:30.146Z,1001.37
2019-03-03T03:57:56.278Z,1001.23
2019-03-03T03:58:22.390Z,1001.12
2019-03-03T03:58:48.509Z,1001.1
2019-03-03T03:59:14.615Z,1001.21
2019-03-03T03:59:40.735Z,1001.28
2019-03-03T04:00:06.836Z,1001.13
2019-03-03T04:00:32.948Z,1001.04
2019-03-03T04:00:59.077Z,1001.13
2019-03-03T04:01:25.211Z,1001.15
2019-03-03T04:01:51.319Z,1001.08
2019-03-03T04:02:17.420Z,1001.14
2019-03-03T04:02:43.530Z,1001.1
2019-03-03T04:03:09.639Z,1001.1
2019-03-03T04:03:35.775Z,1001.17
2019-03-03T04:04:01.882Z,1001.1
2019-03-03T04:04:27.984Z,1001.14
2019-03-03T04:04:54.090Z,1001.33
2019-03-03T04:05:20.227Z,1000.98
2019-03-03T04:05:46.365Z,1001.13
2019-03-03T04:06:12.474Z,1001.19
2019-03-03T04:06:38.612Z,1001.12
2019-03-03T04:07:04.779Z,1001.11
2019-03-03T04:07:30.875Z,1001.15
2019-03-03T04:07:56.989Z,1001.07
2019-03-03T04:08:23.098Z,1001.27
2019-03-03T04:08:49.209Z,1001.21
2019-03-03T04:09:16.306Z,1001.04
2019-03-03T04:09:42.412Z,1001.07
2019-03-03T04:10:08.515Z,1001.08
2019-03-03T04:10:34.627Z,1000.95
2019-03-03T04:11:00.732Z,1001.04
2019-03-03T04:11:26.846Z,1001.15
2019-03-03T04:11:52.955Z,1001.24
2019-03-03T04:12:19.060Z,1001.04
2019-03-03T04:12:45.175Z,1001.1
2019-03-03T04:13:11.275Z,1000.99
2019-03-03T04:13:37.386Z,1001.07
2019-03-03T04:14:03.498Z,1000.72
2019-03-03T04:14:31.987Z,1000.97
2019-03-03T04:14:56.720Z,1000.93
2019-03-03T04:15:22.888Z,1001.03
2019-03-03T04:15:49.024Z,1000.96
2019-03-03T04:16:15.151Z,1001.02
2019-03-03T04:16:41.260Z,1001
2019-03-03T04:17:07.367Z,1000.99
2019-03-03T04:17:33.476Z,1001
2019-03-03T04:17:59.626Z,1000.96
2019-03-03T04:18:25.740Z,1000.91
2019-03-03T04:18:51.846Z,1000.94
2019-03-03T04:19:17.957Z,1000.99
2019-03-03T04:19:44.068Z,1001.01
2019-03-03T04:20:10.170Z,1000.94
2019-03-03T04:20:36.279Z,1001.04
2019-03-03T04:21:02.387Z,1001.16
2019-03-03T04:21:28.515Z,1001.01
2019-03-03T04:21:54.629Z,1001.03
2019-03-03T04:22:20.729Z,1000.9
2019-03-03T04:22:46.903Z,1001.01
2019-03-03T04:23:13.011Z,1001.07
2019-03-03T04:23:39.119Z,1000.95
2019-03-03T04:24:05.242Z,1001.01
2019-03-03T04:24:31.406Z,1000.95
2019-03-03T04:24:57.544Z,1001.03
2019-03-03T04:25:23.640Z,1000.94
2019-03-03T04:25:49.749Z,1000.9
2019-03-03T04:26:15.859Z,1001.27
2019-03-03T04:26:41.969Z,1000.91
2019-03-03T04:27:08.077Z,1001.01
2019-03-03T04:27:34.178Z,1000.88
2019-03-03T04:28:00.290Z,1001
2019-03-03T04:28:26.389Z,1001.07
2019-03-03T04:28:52.531Z,1000.85
2019-03-03T04:29:18.634Z,1000.89
2019-03-03T04:29:44.769Z,1000.85
2019-03-03T04:30:10.903Z,1001.01
2019-03-03T04:30:37.007Z,1000.97
2019-03-03T04:31:03.143Z,1000.93
2019-03-03T04:31:29.272Z,1000.92
2019-03-03T04:31:55.431Z,1000.88
2019-03-03T04:32:21.542Z,1000.95
2019-03-03T04:32:47.652Z,1000.93
2019-03-03T04:33:13.781Z,1000.88
2019-03-03T04:33:39.888Z,1000.84
2019-03-03T04:34:05.994Z,1001
2019-03-03T04:34:33.094Z,1000.9
2019-03-03T04:34:59.223Z,1000.95
2019-03-03T04:35:25.331Z,1000.86
2019-03-03T04:35:51.431Z,1000.86
2019-03-03T04:36:17.533Z,1000.92
2019-03-03T04:36:43.642Z,1000.93
2019-03-03T04:37:09.776Z,1000.88
2019-03-03T04:37:35.875Z,1000.89
2019-03-03T04:38:01.987Z,1000.92
2019-03-03T04:38:28.092Z,1000.83
2019-03-03T04:38:54.194Z,1000.9
2019-03-03T04:39:20.304Z,1000.97
2019-03-03T04:39:46.417Z,1001.1
2019-03-03T04:40:12.548Z,1000.97
2019-03-03T04:40:38.648Z,1000.89
2019-03-03T04:41:04.753Z,1000.83
2019-03-03T04:41:30.863Z,1000.88
2019-03-03T04:41:56.967Z,1000.97
2019-03-03T04:42:23.072Z,1000.87
2019-03-03T04:42:49.183Z,1000.97
2019-03-03T04:43:15.286Z,1000.81
2019-03-03T04:43:41.417Z,1000.87
2019-03-03T04:44:07.517Z,1000.73
2019-03-03T04:44:33.629Z,1000.74
2019-03-03T04:44:59.766Z,1000.79
2019-03-03T04:45:25.869Z,1001.25
2019-03-03T04:45:51.975Z,1000.83
2019-03-03T04:46:18.079Z,1000.62
2019-03-03T04:46:44.190Z,1000.69
2019-03-03T04:47:10.293Z,1000.81
2019-03-03T04:47:36.401Z,1000.71
2019-03-03T04:48:02.504Z,1000.83
2019-03-03T04:48:28.618Z,1000.77
2019-03-03T04:48:54.751Z,1000.68
2019-03-03T04:49:20.862Z,1000.68
2019-03-03T04:49:46.962Z,1000.83
2019-03-03T04:50:13.065Z,1000.77
2019-03-03T04:50:39.168Z,1000.97
2019-03-03T04:51:05.308Z,1001.04
2019-03-03T04:51:31.412Z,1000.69
2019-03-03T04:51:57.514Z,1000.74
2019-03-03T04:52:23.625Z,1000.64
2019-03-03T04:52:49.730Z,1000.7
2019-03-03T04:53:15.841Z,1000.82
2019-03-03T04:53:41.974Z,1000.85
2019-03-03T04:54:08.087Z,1000.65
2019-03-03T04:54:34.209Z,1000.57
2019-03-03T04:55:00.317Z,1000.58
2019-03-03T04:55:26.428Z,1000.64
2019-03-03T04:55:52.528Z,1000.6
2019-03-03T04:56:18.628Z,1000.57
2019-03-03T04:56:44.736Z,1000.57
2019-03-03T04:57:10.845Z,1000.55
2019-03-03T04:57:36.949Z,1000.67
2019-03-03T04:58:03.062Z,1000.63
2019-03-03T04:58:29.154Z,1000.64
2019-03-03T04:58:55.265Z,1000.7
2019-03-03T04:59:21.371Z,1000.59
2019-03-03T04:59:47.480Z,1000.66
2019-03-03T05:00:13.587Z,1000.69
2019-03-03T05:00:39.694Z,1000.61
2019-03-03T05:01:05.799Z,1000.53
2019-03-03T05:01:31.911Z,1000.53
2019-03-03T05:01:58.010Z,1000.56
2019-03-03T05:02:24.150Z,1000.56
2019-03-03T05:02:50.257Z,1000.63
2019-03-03T05:03:16.364Z,1000.56
2019-03-03T05:03:42.493Z,1000.58
2019-03-03T05:04:08.606Z,1000.52
2019-03-03T05:04:34.715Z,1000.53
2019-03-03T05:05:00.823Z,1000.49
2019-03-03T05:05:26.922Z,1000.54
2019-03-03T05:05:53.053Z,1000.53
2019-03-03T05:06:19.163Z,1000.52
2019-03-03T05:06:45.273Z,1000.5
2019-03-03T05:07:11.403Z,1000.56
2019-03-03T05:07:37.511Z,1000.54
2019-03-03T05:08:03.621Z,1000.44
2019-03-03T05:08:29.723Z,1000.57
2019-03-03T05:08:55.834Z,1000.52
2019-03-03T05:09:21.937Z,1000.52
2019-03-03T05:09:48.049Z,1000.51
2019-03-03T05:10:14.157Z,1000.44
2019-03-03T05:10:40.260Z,1000.45
2019-03-03T05:11:06.361Z,1000.49
2019-03-03T05:11:33.427Z,1000.49
2019-03-03T05:11:59.529Z,1000.51
2019-03-03T05:12:25.636Z,1000.72
2019-03-03T05:12:51.744Z,1000.59
2019-03-03T05:13:17.853Z,1000.49
2019-03-03T05:13:43.949Z,1000.43
2019-03-03T05:14:10.061Z,1000.47
2019-03-03T05:14:36.194Z,1000.67
2019-03-03T05:15:02.292Z,1000.51
2019-03-03T05:15:28.398Z,1000.47
2019-03-03T05:15:54.504Z,1000.48
2019-03-03T05:16:20.608Z,1000.33
2019-03-03T05:16:46.712Z,1000.58
2019-03-03T05:17:13.808Z,1000.49